Time;durP1;ratioP1;P1;durP2;ratioP2;P2;SDS_P1;SDS_P2;PMS_P1;PMS_P2;Temp;Humidity;BMP_temperature;BMP_pressure;BME280_temperature;BME280_humidity;BME280_pressure;Samples;Min_cycle;Max_cycle;Signal;HPM_P1;HPM_P2
2022/07/26 00:20:37;;;;;;;7.00;2.00;;;;;;;19.63;44.49;100149.10;115216;1203;547811;-57
2022/07/26 00:23:05;;;;;;;4.90;1.70;;;;;;;21.17;41.30;100143.59;116653;1190;23576;-57
2022/07/26 00:25:32;;;;;;;2.60;1.70;;;;;;;21.22;41.19;100146.14;116753;1191;24211;-59
2022/07/26 00:27:59;;;;;;;3.00;1.60;;;;;;;21.25;41.20;100141.88;116654;1191;22859;-57
2022/07/26 00:30:27;;;;;;;4.30;1.60;;;;;;;21.26;41.14;100140.38;116698;1192;21861;-59
2022/07/26 00:32:54;;;;;;;2.40;1.40;;;;;;;21.25;41.06;100133.50;116597;1191;23563;-57
2022/07/26 00:35:21;;;;;;;3.90;1.70;;;;;;;21.24;41.03;100132.51;116708;1191;23641;-59
2022/07/26 00:37:48;;;;;;;3.70;1.80;;;;;;;21.24;40.92;100131.64;116649;1190;22938;-57
2022/07/26 00:40:16;;;;;;;3.70;1.60;;;;;;;21.19;40.81;100132.24;116748;1192;22108;-57
2022/07/26 00:42:43;;;;;;;2.40;1.50;;;;;;;21.11;40.91;100129.34;116662;1188;23554;-57
2022/07/26 00:45:10;;;;;;;3.80;1.80;;;;;;;21.01;41.07;100134.06;116632;1189;22100;-58
2022/07/26 00:47:37;;;;;;;2.60;1.50;;;;;;;20.94;41.15;100132.48;116744;1189;23573;-59
2022/07/26 00:50:05;;;;;;;4.50;1.50;;;;;;;20.88;41.13;100131.43;116651;1191;23551;-58
2022/07/26 00:52:32;;;;;;;3.10;1.60;;;;;;;20.82;41.11;100132.17;116714;1189;23484;-57
2022/07/26 00:54:59;;;;;;;2.40;1.50;;;;;;;20.75;41.15;100130.41;116645;1190;23560;-58
2022/07/26 00:57:26;;;;;;;2.60;1.40;;;;;;;20.69;41.22;100132.54;116621;1192;23611;-60
2022/07/26 00:59:53;;;;;;;3.60;2.10;;;;;;;20.63;41.36;100134.98;116631;1191;23480;-59
2022/07/26 01:02:20;;;;;;;3.60;1.60;;;;;;;20.60;41.37;100133.91;116627;1189;23576;-57
2022/07/26 01:04:47;;;;;;;4.10;1.80;;;;;;;20.57;41.42;100132.48;116489;1193;21890;-59
2022/07/26 01:07:14;;;;;;;3.10;1.50;;;;;;;20.52;41.42;100130.08;116677;1191;23624;-58
2022/07/26 01:09:41;;;;;;;2.00;1.50;;;;;;;20.43;41.51;100130.80;116534;1192;23487;-59
2022/07/26 01:12:08;;;;;;;3.10;1.70;;;;;;;20.33;41.54;100129.39;116647;1192;22652;-59
2022/07/26 01:14:36;;;;;;;3.50;1.60;;;;;;;20.28;41.68;100129.52;116711;1192;21861;-58
2022/07/26 01:17:03;;;;;;;7.20;1.80;;;;;;;20.28;41.74;100126.50;116622;1192;23561;-58
2022/07/26 01:19:30;;;;;;;4.20;1.50;;;;;;;20.28;41.74;100130.05;116720;1189;22913;-57
2022/07/26 01:21:57;;;;;;;2.90;1.50;;;;;;;20.27;41.79;100129.73;116596;1189;22923;-57
2022/07/26 01:24:24;;;;;;;2.70;1.70;;;;;;;20.24;41.83;100129.02;116583;1189;23565;-57
2022/07/26 01:26:51;;;;;;;4.50;1.90;;;;;;;20.21;41.91;100127.73;116606;1192;24054;-57
2022/07/26 01:29:18;;;;;;;4.40;1.70;;;;;;;20.20;41.95;100129.74;116680;1191;22920;-57
2022/07/26 01:31:45;;;;;;;4.00;1.30;;;;;;;20.21;42.00;100131.14;116739;1189;23555;-59
2022/07/26 01:34:12;;;;;;;4.00;1.60;;;;;;;20.21;42.05;100129.54;116648;1191;22207;-57
2022/07/26 01:36:39;;;;;;;2.80;1.70;;;;;;;20.21;42.12;100127.77;116521;1192;22944;-60
2022/07/26 01:39:06;;;;;;;4.90;2.10;;;;;;;20.20;42.09;100127.64;116743;1189;24212;-58
2022/07/26 01:41:33;;;;;;;2.60;1.60;;;;;;;20.19;42.10;100125.39;116805;1191;24169;-57
2022/07/26 01:44:05;;;;;;;3.80;1.80;;;;;;;20.20;42.12;100125.88;116729;1192;21866;-57
2022/07/26 01:46:34;;;;;;;4.60;1.70;;;;;;;20.19;42.20;100123.61;116793;1189;23539;-57
2022/07/26 01:49:01;;;;;;;5.00;1.90;;;;;;;20.16;42.25;100124.85;116670;1192;23553;-59
2022/07/26 01:51:28;;;;;;;4.60;1.60;;;;;;;20.10;42.28;100124.43;116786;1191;21873;-57
2022/07/26 01:53:55;;;;;;;3.00;1.50;;;;;;;20.03;42.29;100122.52;116765;1191;24064;-57
2022/07/26 01:56:22;;;;;;;4.40;1.70;;;;;;;19.97;42.45;100120.89;116768;1191;22815;-57
2022/07/26 01:58:49;;;;;;;3.20;1.50;;;;;;;19.91;42.58;100116.40;116717;1192;22921;-57
2022/07/26 02:01:16;;;;;;;4.20;1.40;;;;;;;19.88;42.63;100123.52;116879;1189;23559;-57
2022/07/26 02:04:03;;;;;;;3.60;1.70;;;;;;;19.88;42.63;100126.19;116811;1186;21867;-58
2022/07/26 02:06:30;;;;;;;4.50;1.60;;;;;;;19.89;42.62;100123.29;116793;1192;22911;-59
2022/07/26 02:08:59;;;;;;;2.50;1.50;;;;;;;19.86;42.71;100123.08;117011;1186;21851;-57
2022/07/26 02:11:27;;;;;;;5.10;1.60;;;;;;;19.79;42.73;100124.51;116836;1192;21857;-57
2022/07/26 02:13:54;;;;;;;3.20;1.70;;;;;;;19.74;42.82;100122.83;116731;1188;23552;-59
2022/07/26 02:16:21;;;;;;;4.70;1.90;;;;;;;19.70;42.94;100126.23;116766;1191;22615;-59
2022/07/26 02:18:48;;;;;;;4.90;1.70;;;;;;;19.66;42.90;100125.92;116834;1192;21871;-57
2022/07/26 02:21:15;;;;;;;4.60;1.90;;;;;;;19.66;42.99;100125.20;116791;1191;22654;-57
2022/07/26 02:23:43;;;;;;;3.10;1.80;;;;;;;19.68;43.15;100123.34;116798;1191;22985;-58
2022/07/26 02:26:10;;;;;;;4.70;2.00;;;;;;;19.70;43.09;100126.63;116765;1192;22994;-57
2022/07/26 02:28:37;;;;;;;9.60;2.00;;;;;;;19.69;43.08;100126.65;116832;1189;23551;-57
2022/07/26 02:31:04;;;;;;;8.60;2.20;;;;;;;19.67;43.07;100124.30;116825;1191;23550;-58
2022/07/26 02:33:31;;;;;;;11.40;2.10;;;;;;;19.59;43.10;100125.59;116769;1191;23574;-59
2022/07/26 02:35:58;;;;;;;7.20;1.50;;;;;;;19.52;43.15;100125.42;116949;1188;23566;-59
2022/07/26 02:38:25;;;;;;;4.50;1.60;;;;;;;19.48;43.23;100129.38;117001;1188;22651;-57
2022/07/26 02:40:52;;;;;;;6.50;1.90;;;;;;;19.45;43.32;100128.80;116936;1189;21850;-59
2022/07/26 02:43:19;;;;;;;11.50;2.40;;;;;;;19.42;43.32;100131.11;116907;1186;23579;-59
2022/07/26 02:45:46;;;;;;;9.80;2.10;;;;;;;19.40;43.43;100131.94;116996;1189;21916;-59
2022/07/26 02:48:27;;;;;;;13.70;2.00;;;;;;;19.39;43.55;100131.66;116942;1183;23445;-59
2022/07/26 02:50:55;;;;;;;11.20;2.40;;;;;;;19.38;43.54;100131.33;116913;1188;22921;-58
2022/07/26 02:53:22;;;;;;;4.00;1.90;;;;;;;19.39;43.60;100126.30;116935;1183;22931;-59
2022/07/26 02:55:49;;;;;;;6.00;1.90;;;;;;;19.39;43.64;100128.65;116912;1189;23638;-59
2022/07/26 02:58:16;;;;;;;6.70;1.90;;;;;;;19.41;43.66;100125.11;116760;1185;23696;-59
2022/07/26 03:00:43;;;;;;;6.90;1.60;;;;;;;19.43;43.62;100123.39;116967;1186;23711;-59
2022/07/26 03:03:12;;;;;;;9.40;2.60;;;;;;;19.44;43.69;100123.01;117085;1186;25381;-59
2022/07/26 03:05:40;;;;;;;6.90;2.50;;;;;;;19.46;43.82;100120.75;116991;1186;22080;-59
2022/07/26 03:08:07;;;;;;;7.40;1.90;;;;;;;19.50;43.78;100117.02;116985;1189;23640;-59
2022/07/26 03:10:34;;;;;;;7.30;2.10;;;;;;;19.52;43.89;100119.74;116983;1189;22532;-59
2022/07/26 03:13:01;;;;;;;6.50;1.60;;;;;;;19.55;43.91;100121.71;117014;1185;22727;-59
2022/07/26 03:15:28;;;;;;;4.80;2.00;;;;;;;19.60;43.95;100122.19;117020;1186;24016;-57
2022/07/26 03:17:55;;;;;;;7.90;2.00;;;;;;;19.64;43.92;100123.23;116996;1189;21860;-57
2022/07/26 03:20:22;;;;;;;9.80;2.00;;;;;;;19.69;44.09;100124.36;116979;1188;23551;-57
2022/07/26 03:22:49;;;;;;;15.90;2.90;;;;;;;19.74;44.08;100119.82;116980;1188;22838;-59
2022/07/26 03:25:16;;;;;;;7.20;2.10;;;;;;;19.76;44.32;100117.71;116943;1189;21850;-59
2022/07/26 03:27:43;;;;;;;8.30;2.00;;;;;;;19.81;44.44;100119.08;116965;1186;22738;-57
2022/07/26 03:30:10;;;;;;;6.50;1.60;;;;;;;19.87;44.29;100118.20;116997;1188;23593;-59
2022/07/26 03:32:37;;;;;;;2.80;1.60;;;;;;;19.95;44.39;100118.36;117045;1188;22994;-57
2022/07/26 03:35:06;;;;;;;11.40;2.20;;;;;;;20.02;44.38;100120.46;116978;1189;22727;-58
2022/07/26 03:37:33;;;;;;;11.10;2.00;;;;;;;20.10;44.41;100119.82;117006;1191;21848;-58
2022/07/26 03:40:15;;;;;;;15.30;2.80;;;;;;;20.20;44.61;100121.20;116961;1189;21901;-57
2022/07/26 03:42:43;;;;;;;5.90;1.80;;;;;;;20.29;44.44;100120.90;116945;1186;21882;-57
2022/07/26 03:45:12;;;;;;;7.70;1.90;;;;;;;20.39;44.44;100118.17;117055;1188;21973;-57
2022/07/26 03:47:39;;;;;;;2.70;1.90;;;;;;;20.49;44.46;100114.44;116947;1189;23683;-57
2022/07/26 03:50:06;;;;;;;5.00;1.80;;;;;;;20.59;44.47;100109.55;116901;1185;23267;-58
2022/07/26 03:52:33;;;;;;;3.80;1.80;;;;;;;20.72;44.38;100110.95;116869;1188;22993;-58
2022/07/26 03:56:27;;;;;;;14.30;1.80;;;;;;;20.79;44.40;100112.49;119025;1188;21782;-59
2022/07/26 03:57:47;;;;;;;3.70;2.00;;;;;;;20.92;44.34;100113.55;118894;1188;21823;-58
2022/07/26 04:00:14;;;;;;;3.10;1.90;;;;;;;21.02;44.23;100110.66;119129;1187;21838;-59
2022/07/26 04:02:41;;;;;;;5.80;1.80;;;;;;;21.13;44.19;100106.23;119038;1188;21779;-60
2022/07/26 04:05:08;;;;;;;4.30;2.00;;;;;;;21.26;44.15;100108.64;119066;1187;21804;-59
2022/07/26 04:07:45;;;;;;;6.50;1.90;;;;;;;21.38;44.06;100108.08;117533;1187;22880;-59
2022/07/26 04:10:19;;;;;;;7.40;2.20;;;;;;;21.53;44.08;100103.27;116808;1188;22994;-57
2022/07/26 04:12:46;;;;;;;9.60;2.00;;;;;;;21.66;44.06;100102.29;117004;1188;22919;-60
2022/07/26 04:15:15;;;;;;;3.20;1.80;;;;;;;21.78;43.94;100103.13;116940;1183;22951;-57
2022/07/26 04:17:43;;;;;;;5.00;1.90;;;;;;;21.89;43.93;100107.45;116956;1189;22129;-58
2022/07/26 04:20:12;;;;;;;4.30;1.90;;;;;;;22.01;43.92;100109.92;116984;1185;22946;-57
2022/07/26 04:22:39;;;;;;;9.10;2.00;;;;;;;22.14;43.87;100111.05;116994;1186;22929;-57
2022/07/26 04:25:07;;;;;;;5.90;2.00;;;;;;;22.24;43.67;100110.35;116994;1189;21854;-59
2022/07/26 04:27:34;;;;;;;2.40;1.50;;;;;;;22.37;43.79;100111.85;117051;1186;21869;-59
2022/07/26 04:30:01;;;;;;;3.10;1.80;;;;;;;22.50;43.72;100113.34;116917;1189;21862;-58
2022/07/26 04:32:28;;;;;;;3.30;1.70;;;;;;;22.65;43.53;100115.42;117058;1188;21852;-59
2022/07/26 04:34:55;;;;;;;5.10;1.90;;;;;;;22.78;43.47;100119.02;116953;1186;22930;-59
2022/07/26 04:37:22;;;;;;;3.50;1.80;;;;;;;22.91;43.34;100123.17;117000;1186;24262;-57
2022/07/26 04:39:49;;;;;;;4.70;1.80;;;;;;;23.04;43.18;100119.06;116959;1189;23691;-58
2022/07/26 04:42:20;;;;;;;4.60;1.70;;;;;;;23.16;43.04;100113.38;117017;1188;21862;-58
2022/07/26 04:44:47;;;;;;;2.60;1.70;;;;;;;23.29;43.06;100114.35;116846;1186;23598;-57
2022/07/26 04:47:14;;;;;;;8.00;2.00;;;;;;;23.42;43.08;100115.05;116995;1189;23364;-59
2022/07/26 04:49:41;;;;;;;3.60;1.90;;;;;;;23.55;42.89;100114.31;116970;1183;22951;-58
2022/07/26 04:52:08;;;;;;;5.20;1.80;;;;;;;23.70;42.82;100115.75;116827;1185;23548;-57
2022/07/26 04:54:35;;;;;;;2.00;1.40;;;;;;;23.84;42.73;100117.23;116897;1189;24169;-59
2022/07/26 04:57:02;;;;;;;2.90;1.40;;;;;;;24.00;42.63;100114.52;116991;1189;22967;-59
2022/07/26 04:59:29;;;;;;;2.90;2.10;;;;;;;24.17;42.36;100115.95;116999;1186;24146;-59
2022/07/26 05:01:58;;;;;;;6.60;1.80;;;;;;;24.32;42.30;100118.45;116990;1189;22964;-58
2022/07/26 05:04:25;;;;;;;3.60;2.10;;;;;;;24.46;42.01;100122.11;116986;1186;22149;-58
2022/07/26 05:06:52;;;;;;;11.10;6.90;;;;;;;24.62;41.92;100121.48;116945;1186;23572;-59
2022/07/26 05:09:19;;;;;;;9.10;5.80;;;;;;;24.78;42.06;100117.54;116885;1186;24310;-59
2022/07/26 05:11:46;;;;;;;8.60;3.80;;;;;;;24.94;41.81;100117.57;116833;1186;22928;-58
2022/07/26 05:14:13;;;;;;;4.00;2.30;;;;;;;25.09;41.49;100118.10;116952;1186;22932;-58
2022/07/26 05:16:40;;;;;;;5.10;2.40;;;;;;;25.25;41.48;100118.48;116897;1188;23651;-59
2022/07/26 05:19:10;;;;;;;8.10;2.50;;;;;;;25.38;41.12;100120.34;116968;1189;21876;-58
2022/07/26 05:21:37;;;;;;;7.70;2.10;;;;;;;25.51;41.21;100117.70;116997;1188;24152;-60
2022/07/26 05:24:05;;;;;;;2.70;1.80;;;;;;;25.70;41.13;100111.88;116963;1188;23539;-59
2022/07/26 05:26:33;;;;;;;4.60;1.90;;;;;;;25.91;40.90;100107.66;117135;1181;22918;-58
2022/07/26 05:29:00;;;;;;;4.00;1.90;;;;;;;26.16;40.93;100107.14;116954;1185;23554;-58
2022/07/26 05:31:27;;;;;;;4.20;2.10;;;;;;;26.40;40.75;100107.52;116973;1189;21872;-59
2022/07/26 05:33:55;;;;;;;4.50;1.80;;;;;;;26.62;40.53;100104.04;116918;1189;21856;-59
2022/07/26 05:36:21;;;;;;;3.50;2.00;;;;;;;26.87;40.45;100107.92;116975;1189;24162;-59
2022/07/26 05:38:48;;;;;;;5.30;2.10;;;;;;;27.15;40.12;100109.89;116917;1186;23512;-58
2022/07/26 05:41:16;;;;;;;10.90;2.30;;;;;;;27.41;39.74;100110.14;116988;1188;23449;-59
2022/07/26 05:43:43;;;;;;;5.00;1.90;;;;;;;27.60;39.64;100109.74;116930;1189;23657;-58
2022/07/26 05:46:10;;;;;;;4.00;1.90;;;;;;;27.73;39.31;100110.95;116964;1186;24141;-58
2022/07/26 05:48:41;;;;;;;4.00;2.10;;;;;;;27.88;39.16;100107.88;117115;1186;23300;-59
2022/07/26 05:51:09;;;;;;;9.00;1.90;;;;;;;28.09;38.96;100103.15;117157;1189;21923;-59
2022/07/26 05:53:36;;;;;;;6.10;2.20;;;;;;;28.19;38.73;100102.53;117198;1189;24155;-59
2022/07/26 05:56:03;;;;;;;5.20;2.50;;;;;;;28.30;38.72;100100.46;116955;1187;21908;-59
2022/07/26 05:58:30;;;;;;;4.10;2.10;;;;;;;28.53;38.93;100099.61;117157;1188;22825;-59
2022/07/26 06:00:57;;;;;;;4.70;1.80;;;;;;;28.87;38.65;100099.08;116986;1186;23494;-59
2022/07/26 06:03:24;;;;;;;3.80;2.00;;;;;;;29.14;38.10;100098.88;116951;1189;21866;-59
2022/07/26 06:05:55;;;;;;;6.30;2.00;;;;;;;29.25;37.92;100092.03;116870;1189;23624;-59
2022/07/26 06:08:23;;;;;;;3.50;1.70;;;;;;;29.41;37.98;100088.01;116982;1189;23630;-60
2022/07/26 06:10:51;;;;;;;3.50;2.00;;;;;;;29.64;37.51;100087.45;117007;1188;22327;-59
2022/07/26 06:13:18;;;;;;;3.90;1.90;;;;;;;29.79;37.47;100080.92;116981;1189;22649;-59
2022/07/26 06:15:45;;;;;;;2.70;1.70;;;;;;;29.87;36.98;100075.69;116892;1189;22843;-59
2022/07/26 06:18:12;;;;;;;3.20;2.00;;;;;;;29.89;36.90;100070.19;116929;1186;21884;-59
2022/07/26 06:20:40;;;;;;;4.80;2.10;;;;;;;29.97;36.83;100069.39;117271;1188;23554;-59
2022/07/26 06:23:07;;;;;;;3.70;2.00;;;;;;;30.07;36.83;100070.45;116936;1189;23579;-59
2022/07/26 06:25:34;;;;;;;4.80;2.20;;;;;;;30.33;36.22;100070.32;116808;1186;22924;-59
2022/07/26 06:28:02;;;;;;;9.60;2.40;;;;;;;30.59;36.10;100063.43;116824;1185;22713;-58
2022/07/26 06:30:29;;;;;;;11.60;3.40;;;;;;;30.84;35.76;100062.68;116804;1189;21870;-58
2022/07/26 06:32:56;;;;;;;4.10;2.60;;;;;;;31.02;35.76;100062.70;116908;1188;21861;-59
2022/07/26 06:35:23;;;;;;;4.90;2.20;;;;;;;31.08;35.51;100058.27;116834;1189;21839;-58
2022/07/26 06:37:50;;;;;;;15.70;3.10;;;;;;;31.14;35.32;100060.17;116817;1189;22629;-59
2022/07/26 06:40:17;;;;;;;8.20;2.10;;;;;;;31.28;35.50;100056.26;116775;1192;22629;-59
2022/07/26 06:42:44;;;;;;;5.20;1.80;;;;;;;31.45;35.10;100048.98;116986;1186;23554;-59
2022/07/26 06:45:11;;;;;;;3.90;2.10;;;;;;;31.47;34.70;100044.77;116828;1184;23690;-59
2022/07/26 06:47:38;;;;;;;3.50;1.60;;;;;;;31.42;33.88;100045.13;116821;1192;23564;-59
2022/07/26 06:50:06;;;;;;;5.40;1.90;;;;;;;31.33;34.27;100043.73;116963;1186;24175;-59
2022/07/26 06:52:33;;;;;;;4.50;2.00;;;;;;;31.43;34.78;100043.58;117033;1180;23638;-59
2022/07/26 06:55:00;;;;;;;3.10;2.10;;;;;;;31.59;34.28;100044.18;116897;1185;22918;-59
2022/07/26 06:57:27;;;;;;;4.80;2.20;;;;;;;31.83;34.20;100042.81;116894;1188;21857;-59
2022/07/26 06:59:54;;;;;;;4.30;2.00;;;;;;;32.13;34.40;100040.17;116909;1186;23596;-59
2022/07/26 07:02:21;;;;;;;3.10;1.50;;;;;;;32.45;33.57;100039.80;116765;1189;21872;-59
2022/07/26 07:04:48;;;;;;;4.00;2.10;;;;;;;32.61;33.46;100041.27;116955;1188;22813;-60
2022/07/26 07:07:15;;;;;;;5.80;1.80;;;;;;;32.77;33.56;100041.65;116831;1186;22987;-58
2022/07/26 07:09:42;;;;;;;3.90;1.80;;;;;;;33.13;33.61;100038.52;116915;1186;22939;-55
2022/07/26 07:12:10;;;;;;;8.80;1.90;;;;;;;33.52;32.94;100033.13;116951;1188;21860;-58
2022/07/26 07:14:37;;;;;;;4.80;1.60;;;;;;;33.80;32.84;100028.75;116838;1188;23550;-57
2022/07/26 07:17:05;;;;;;;4.70;2.00;;;;;;;34.01;32.14;100023.66;116949;1187;22511;-57
2022/07/26 07:19:40;;;;;;;3.50;1.70;;;;;;;34.12;31.82;100028.20;116836;1188;22921;-58
2022/07/26 07:22:10;;;;;;;4.20;1.20;;;;;;;34.25;30.43;100032.43;117001;1186;22923;-58
2022/07/26 07:24:39;;;;;;;3.70;1.40;;;;;;;34.19;30.70;100035.59;116941;1188;22912;-58
2022/07/26 07:27:06;;;;;;;7.20;2.50;;;;;;;34.14;31.15;100035.02;117046;1187;23255;-57
2022/07/26 07:29:33;;;;;;;4.20;1.40;;;;;;;34.44;31.31;100030.20;117092;1189;21848;-58
2022/07/26 07:32:00;;;;;;;3.80;1.20;;;;;;;34.64;30.57;100028.88;116966;1186;22920;-58
2022/07/26 07:34:29;;;;;;;2.90;1.60;;;;;;;34.77;30.58;100036.91;117043;1188;22921;-58
2022/07/26 07:36:56;;;;;;;5.40;1.60;;;;;;;35.04;30.83;100038.36;116965;1188;23457;-58
2022/07/26 07:39:23;;;;;;;10.80;1.60;;;;;;;35.27;30.10;100036.30;116922;1185;22648;-59
2022/07/26 07:41:52;;;;;;;6.60;1.40;;;;;;;35.39;30.03;100033.76;116957;1188;21960;-59
2022/07/26 07:44:19;;;;;;;4.70;1.70;;;;;;;35.44;29.52;100034.71;116882;1185;22643;-59
2022/07/26 07:46:46;;;;;;;6.00;1.50;;;;;;;35.46;29.12;100032.05;116789;1186;22550;-59
2022/07/26 07:49:14;;;;;;;3.20;1.40;;;;;;;35.41;29.00;100035.46;116912;1188;21852;-59
2022/07/26 07:51:41;;;;;;;1.60;1.10;;;;;;;35.37;29.05;100030.98;117006;1184;23488;-59
2022/07/26 07:54:11;;;;;;;5.00;1.20;;;;;;;35.33;28.71;100028.88;117079;1188;21847;-59
2022/07/26 07:56:38;;;;;;;4.40;1.40;;;;;;;35.28;28.08;100026.96;116916;1186;23656;-59
2022/07/26 07:59:05;;;;;;;4.20;1.30;;;;;;;35.20;27.04;100027.54;116953;1188;21882;-59
2022/07/26 08:01:33;;;;;;;3.90;1.40;;;;;;;35.08;27.96;100025.89;116849;1188;22652;-59
2022/07/26 08:04:05;;;;;;;3.40;1.20;;;;;;;35.15;28.42;100022.48;116857;1188;21873;-59
2022/07/26 08:06:32;;;;;;;2.30;1.10;;;;;;;35.35;28.21;100023.90;116864;1189;21876;-60
2022/07/26 08:09:00;;;;;;;2.50;1.10;;;;;;;35.49;27.54;100023.29;116850;1185;23572;-59
2022/07/26 08:11:30;;;;;;;5.10;1.10;;;;;;;35.83;27.84;100021.22;117022;1188;21852;-59
2022/07/26 08:13:59;;;;;;;1.90;1.10;;;;;;;36.18;27.47;100018.31;116950;1186;21858;-58
2022/07/26 08:16:26;;;;;;;2.40;1.50;;;;;;;36.39;27.29;100014.19;116877;1188;21981;-58
2022/07/26 08:18:53;;;;;;;7.10;1.30;;;;;;;36.68;27.49;100012.71;116969;1188;23648;-58
2022/07/26 08:21:25;;;;;;;4.20;1.40;;;;;;;37.12;26.85;100007.36;117127;1187;22401;-58
2022/07/26 08:23:58;;;;;;;3.40;1.30;;;;;;;37.52;27.14;100007.85;117074;1188;23625;-58
2022/07/26 08:26:25;;;;;;;1.80;1.30;;;;;;;37.76;26.41;100007.47;116989;1186;22869;-58
2022/07/26 08:28:52;;;;;;;3.10;1.40;;;;;;;37.81;25.90;100004.86;117080;1184;22954;-58
2022/07/26 08:31:27;;;;;;;2.40;1.50;;;;;;;37.89;25.81;100006.02;117135;1185;23478;-59
2022/07/26 08:33:54;;;;;;;2.50;1.40;;;;;;;37.98;25.76;100001.88;117031;1187;22937;-59
2022/07/26 08:36:21;;;;;;;2.00;1.10;;;;;;;38.08;25.32;100005.27;117033;1188;24156;-59
2022/07/26 08:38:48;;;;;;;3.40;1.20;;;;;;;38.13;25.27;100006.52;116997;1188;23382;-58
2022/07/26 08:41:16;;;;;;;3.20;1.20;;;;;;;38.09;25.69;100006.04;116965;1186;22645;-58
2022/07/26 08:43:45;;;;;;;9.90;1.40;;;;;;;38.22;25.34;100003.95;117061;1188;22902;-59
2022/07/26 08:46:21;;;;;;;3.60;1.50;;;;;;;38.59;25.41;100003.09;116984;1185;21868;-59
2022/07/26 08:48:53;;;;;;;4.30;1.40;;;;;;;38.92;25.09;100002.05;118304;1188;21871;-59
2022/07/26 08:51:22;;;;;;;3.80;1.30;;;;;;;39.28;24.82;100002.75;117088;1186;21867;-59
2022/07/26 08:53:53;;;;;;;2.70;1.40;;;;;;;39.41;24.14;100002.30;117139;1185;23439;-59
2022/07/26 08:56:23;;;;;;;2.60;1.20;;;;;;;39.20;23.87;100002.65;117105;1187;22651;-60
2022/07/26 08:58:50;;;;;;;3.60;1.30;;;;;;;39.12;24.34;100006.23;116979;1188;21914;-59
2022/07/26 09:01:17;;;;;;;2.40;1.30;;;;;;;39.24;23.70;100009.20;116997;1188;21915;-60
2022/07/26 09:03:44;;;;;;;2.60;1.40;;;;;;;39.34;23.76;100011.05;117083;1188;21840;-60
2022/07/26 09:06:16;;;;;;;1.50;1.10;;;;;;;39.32;23.17;100011.56;117095;1187;21888;-60
2022/07/26 09:08:47;;;;;;;2.60;1.10;;;;;;;39.18;23.38;100012.23;116954;1186;23004;-59
2022/07/26 09:11:34;;;;;;;4.20;1.00;;;;;;;39.36;23.69;100015.83;117029;1186;21860;-61
2022/07/26 09:14:04;;;;;;;2.60;1.10;;;;;;;39.53;23.20;100011.86;117254;1184;22909;-58
2022/07/26 09:16:31;;;;;;;4.00;1.20;;;;;;;39.64;22.89;100001.59;117030;1189;21933;-60
2022/07/26 09:19:20;;;;;;;4.80;1.20;;;;;;;39.87;23.17;100006.10;116961;1188;21857;-58
2022/07/26 09:21:47;;;;;;;1.30;0.90;;;;;;;40.11;22.75;100005.67;116932;1188;24178;-57
2022/07/26 09:24:30;;;;;;;2.10;0.90;;;;;;;40.07;22.33;100008.38;116985;1188;24394;-59
2022/07/26 09:26:58;;;;;;;1.80;1.00;;;;;;;39.99;22.28;100005.80;116915;1188;22731;-58
2022/07/26 09:29:25;;;;;;;3.40;1.00;;;;;;;40.05;22.17;100006.53;116961;1188;23567;-58
2022/07/26 09:31:52;;;;;;;2.40;1.00;;;;;;;39.99;21.94;100010.30;116875;1186;22941;-57
2022/07/26 09:34:24;;;;;;;3.50;1.20;;;;;;;39.75;21.98;100011.20;116790;1188;24168;-60
2022/07/26 09:36:55;;;;;;;8.00;1.10;;;;;;;39.59;22.03;100008.56;117056;1189;21908;-60
2022/07/26 09:39:22;;;;;;;3.40;1.10;;;;;;;39.66;22.31;100004.45;117110;1182;22529;-60
2022/07/26 09:42:09;;;;;;;1.90;1.30;;;;;;;39.83;21.69;100004.98;117330;1185;22915;-58
2022/07/26 09:44:55;;;;;;;3.10;1.20;;;;;;;39.54;21.85;99996.48;117269;1185;23432;-58
2022/07/26 09:47:33;;;;;;;2.00;1.20;;;;;;;39.66;21.82;99993.31;117299;1185;21876;-58
2022/07/26 09:50:28;;;;;;;2.10;1.20;;;;;;;39.95;21.68;99992.27;117193;1185;21876;-57
2022/07/26 09:53:09;;;;;;;4.80;1.10;;;;;;;40.39;21.87;99995.24;117166;1186;22921;-59
2022/07/26 09:55:52;;;;;;;1.50;0.80;;;;;;;40.89;21.48;99989.73;117312;1186;22808;-59
2022/07/26 09:58:20;;;;;;;9.20;1.30;;;;;;;41.24;20.81;99986.08;117335;1182;22054;-59
2022/07/26 10:00:48;;;;;;;4.90;1.20;;;;;;;41.35;21.01;99983.78;117227;1180;21953;-59
2022/07/26 10:03:15;;;;;;;4.90;1.10;;;;;;;41.39;21.27;99977.23;117106;1183;23544;-59
2022/07/26 10:05:42;;;;;;;3.70;1.20;;;;;;;41.30;20.79;99978.53;117098;1188;21857;-59
2022/07/26 10:08:09;;;;;;;3.00;1.20;;;;;;;40.97;20.72;99986.39;117270;1182;22951;-59
2022/07/26 10:10:47;;;;;;;5.20;1.20;;;;;;;40.75;21.08;99982.14;117039;1187;22649;-59
2022/07/26 10:13:14;;;;;;;2.00;1.00;;;;;;;40.76;21.09;99981.44;117342;1185;21864;-58
2022/07/26 10:15:45;;;;;;;1.30;0.90;;;;;;;40.91;20.83;99975.80;117072;1186;22614;-59
2022/07/26 10:18:34;;;;;;;1.90;1.10;;;;;;;41.00;20.48;99970.90;116989;1187;22902;-59
2022/07/26 10:21:22;;;;;;;3.60;1.00;;;;;;;41.07;20.23;99968.56;117281;1185;21912;-59
2022/07/26 10:23:57;;;;;;;4.60;1.30;;;;;;;41.18;20.08;99968.21;117268;1185;24177;-59
2022/07/26 10:26:30;;;;;;;2.40;1.00;;;;;;;41.15;20.36;99974.23;117278;1182;22036;-58
2022/07/26 10:29:16;;;;;;;5.80;1.10;;;;;;;41.24;19.80;99976.48;117200;1182;21859;-59
2022/07/26 10:31:43;;;;;;;4.20;1.10;;;;;;;41.11;19.40;99971.80;117087;1186;21861;-58
2022/07/26 10:34:37;;;;;;;1.90;1.10;;;;;;;40.61;19.02;99974.56;117252;1186;21858;-58
2022/07/26 10:37:07;;;;;;;2.10;1.40;;;;;;;39.98;19.41;99968.52;117168;1184;23547;-59
2022/07/26 10:39:34;;;;;;;3.90;1.30;;;;;;;39.68;19.66;99969.21;117200;1184;23547;-58
2022/07/26 10:42:07;;;;;;;2.80;1.20;;;;;;;39.55;19.77;99965.34;117182;1185;21895;-59
2022/07/26 10:44:40;;;;;;;1.20;1.00;;;;;;;39.42;19.69;99963.08;117164;1187;21924;-59
2022/07/26 10:47:14;;;;;;;4.50;1.30;;;;;;;39.37;19.63;99959.38;117358;1182;21858;-59
2022/07/26 10:49:57;;;;;;;2.20;1.30;;;;;;;39.41;19.60;99955.51;117422;1183;22854;-58
2022/07/26 10:52:29;;;;;;;2.70;1.20;;;;;;;39.50;19.50;99953.04;117211;1185;23593;-59
2022/07/26 10:54:56;;;;;;;25.70;2.80;;;;;;;39.77;18.92;99948.27;117300;1186;21872;-60
2022/07/26 10:57:26;;;;;;;4.60;1.90;;;;;;;39.54;18.57;99945.57;117290;1183;23544;-58
2022/07/26 10:59:56;;;;;;;3.70;1.30;;;;;;;39.36;19.11;99939.73;117301;1183;23570;-59
2022/07/26 11:02:25;;;;;;;2.90;1.40;;;;;;;39.52;19.42;99938.40;117288;1185;22008;-59
2022/07/26 11:05:11;;;;;;;6.30;1.30;;;;;;;39.65;19.32;99932.45;117286;1186;21858;-59
2022/07/26 11:07:53;;;;;;;5.30;1.50;;;;;;;39.64;19.01;99923.61;117218;1186;23817;-60
2022/07/26 11:10:22;;;;;;;5.70;1.40;;;;;;;39.79;19.52;99930.20;117205;1181;22969;-60
2022/07/26 11:13:03;;;;;;;4.80;1.20;;;;;;;40.17;19.51;99930.14;117224;1183;23462;-58
2022/07/26 11:15:30;;;;;;;3.00;1.30;;;;;;;40.57;19.06;99923.41;117220;1183;23590;-60
2022/07/26 11:18:08;;;;;;;8.40;1.20;;;;;;;40.68;18.96;99931.40;117211;1186;21901;-58
2022/07/26 11:20:35;;;;;;;2.10;1.40;;;;;;;40.33;18.76;99931.81;117178;1181;22962;-59
2022/07/26 11:23:02;;;;;;;6.00;1.30;;;;;;;39.94;18.90;99930.28;117108;1183;22918;-60
2022/07/26 11:25:30;;;;;;;2.90;1.20;;;;;;;39.69;19.02;99924.01;117379;1186;21870;-60
2022/07/26 11:28:01;;;;;;;2.30;1.60;;;;;;;39.75;19.31;99921.59;117014;1187;22911;-60
2022/07/26 11:30:33;;;;;;;1.80;1.20;;;;;;;40.14;19.15;99922.11;117302;1185;22623;-58
2022/07/26 11:33:00;;;;;;;6.70;1.70;;;;;;;40.47;18.90;99910.53;117175;1185;23539;-58
2022/07/26 11:35:27;;;;;;;1.90;1.20;;;;;;;40.76;18.28;99906.96;117220;1185;22626;-58
2022/07/26 11:37:56;;;;;;;3.10;1.20;;;;;;;40.72;17.89;99898.52;117074;1182;21904;-58
2022/07/26 11:40:44;;;;;;;4.20;1.20;;;;;;;40.70;18.23;99897.73;117198;1186;22901;-59
2022/07/26 11:43:12;;;;;;;2.60;1.00;;;;;;;40.81;17.43;99899.84;117272;1182;22925;-58
2022/07/26 11:45:39;;;;;;;2.20;1.20;;;;;;;40.69;16.87;99895.34;117264;1183;23550;-59
2022/07/26 11:48:07;;;;;;;5.40;1.20;;;;;;;40.44;17.20;99893.98;117230;1186;21979;-59